sensor_id;sensor_type;location;lat;lon;timestamp;P1;durP1;ratioP1;P2;durP2;ratioP2
8946;SDS011;4508;48.790;9.028;2022-09-06T00:00:51;2.40;;;2.20;;
8946;SDS011;4508;48.790;9.028;2022-09-06T00:03:18;3.20;;;2.50;;
8946;SDS011;4508;48.790;9.028;2022-09-06T00:05:46;3.05;;;2.45;;
8946;SDS011;4508;48.790;9.028;2022-09-06T00:08:13;3.42;;;2.40;;
8946;SDS011;4508;48.790;9.028;2022-09-06T00:10:40;3.97;;;2.40;;
8946;SDS011;4508;48.790;9.028;2022-09-06T00:13:07;2.65;;;2.22;;
8946;SDS011;4508;48.790;9.028;2022-09-06T00:15:35;2.80;;;2.40;;
8946;SDS011;4508;48.790;9.028;2022-09-06T00:18:04;3.08;;;2.30;;
8946;SDS011;4508;48.790;9.028;2022-09-06T00:20:32;3.72;;;2.60;;
8946;SDS011;4508;48.790;9.028;2022-09-06T00:23:03;2.85;;;2.60;;
8946;SDS011;4508;48.790;9.028;2022-09-06T00:25:31;3.28;;;2.40;;
8946;SDS011;4508;48.790;9.028;2022-09-06T00:27:58;2.83;;;2.35;;
8946;SDS011;4508;48.790;9.028;2022-09-06T00:30:27;2.83;;;2.50;;
8946;SDS011;4508;48.790;9.028;2022-09-06T00:32:55;2.72;;;2.40;;
8946;SDS011;4508;48.790;9.028;2022-09-06T00:35:22;2.40;;;2.20;;
8946;SDS011;4508;48.790;9.028;2022-09-06T00:37:50;2.78;;;2.55;;
8946;SDS011;4508;48.790;9.028;2022-09-06T00:40:18;3.10;;;2.55;;
8946;SDS011;4508;48.790;9.028;2022-09-06T00:42:45;3.38;;;2.60;;
8946;SDS011;4508;48.790;9.028;2022-09-06T00:45:12;3.73;;;2.53;;
8946;SDS011;4508;48.790;9.028;2022-09-06T00:47:40;3.63;;;2.83;;
8946;SDS011;4508;48.790;9.028;2022-09-06T00:50:08;3.35;;;2.50;;
8946;SDS011;4508;48.790;9.028;2022-09-06T00:52:37;3.65;;;2.50;;
8946;SDS011;4508;48.790;9.028;2022-09-06T00:55:06;3.53;;;2.38;;
8946;SDS011;4508;48.790;9.028;2022-09-06T00:57:35;3.40;;;2.40;;
8946;SDS011;4508;48.790;9.028;2022-09-06T01:00:03;3.30;;;2.80;;
8946;SDS011;4508;48.790;9.028;2022-09-06T01:02:32;3.90;;;2.63;;
8946;SDS011;4508;48.790;9.028;2022-09-06T01:04:59;2.60;;;2.40;;
8946;SDS011;4508;48.790;9.028;2022-09-06T01:07:30;3.60;;;2.53;;
8946;SDS011;4508;48.790;9.028;2022-09-06T01:10:08;3.20;;;2.58;;
8946;SDS011;4508;48.790;9.028;2022-09-06T01:12:49;3.15;;;2.80;;
8946;SDS011;4508;48.790;9.028;2022-09-06T01:15:27;2.92;;;2.60;;
8946;SDS011;4508;48.790;9.028;2022-09-06T01:18:02;3.30;;;2.60;;
8946;SDS011;4508;48.790;9.028;2022-09-06T01:26:43;4.03;;;2.83;;
8946;SDS011;4508;48.790;9.028;2022-09-06T01:29:30;3.83;;;2.80;;
8946;SDS011;4508;48.790;9.028;2022-09-06T01:32:04;4.50;;;2.80;;
8946;SDS011;4508;48.790;9.028;2022-09-06T01:34:38;4.00;;;2.70;;
8946;SDS011;4508;48.790;9.028;2022-09-06T01:37:09;3.40;;;2.70;;
8946;SDS011;4508;48.790;9.028;2022-09-06T01:39:39;3.93;;;2.70;;
8946;SDS011;4508;48.790;9.028;2022-09-06T01:42:07;4.35;;;3.05;;
8946;SDS011;4508;48.790;9.028;2022-09-06T01:44:38;2.78;;;2.58;;
8946;SDS011;4508;48.790;9.028;2022-09-06T01:47:12;3.95;;;2.80;;
8946;SDS011;4508;48.790;9.028;2022-09-06T01:49:51;2.65;;;2.45;;
8946;SDS011;4508;48.790;9.028;2022-09-06T01:52:32;3.38;;;2.67;;
8946;SDS011;4508;48.790;9.028;2022-09-06T01:55:10;2.83;;;2.50;;
8946;SDS011;4508;48.790;9.028;2022-09-06T01:57:49;3.50;;;2.78;;
8946;SDS011;4508;48.790;9.028;2022-09-06T02:00:29;2.80;;;2.50;;
8946;SDS011;4508;48.790;9.028;2022-09-06T02:03:04;3.30;;;2.80;;
8946;SDS011;4508;48.790;9.028;2022-09-06T02:05:38;3.05;;;2.78;;
8946;SDS011;4508;48.790;9.028;2022-09-06T02:08:08;3.42;;;2.90;;
8946;SDS011;4508;48.790;9.028;2022-09-06T02:10:40;3.60;;;2.70;;
8946;SDS011;4508;48.790;9.028;2022-09-06T02:13:11;3.73;;;2.80;;
8946;SDS011;4508;48.790;9.028;2022-09-06T02:15:42;3.33;;;2.60;;
8946;SDS011;4508;48.790;9.028;2022-09-06T02:18:17;3.83;;;2.90;;
8946;SDS011;4508;48.790;9.028;2022-09-06T02:20:48;3.57;;;2.83;;
8946;SDS011;4508;48.790;9.028;2022-09-06T02:23:19;3.40;;;2.80;;
8946;SDS011;4508;48.790;9.028;2022-09-06T02:25:50;5.15;;;3.03;;
8946;SDS011;4508;48.790;9.028;2022-09-06T02:28:20;3.20;;;2.80;;
8946;SDS011;4508;48.790;9.028;2022-09-06T02:30:49;4.28;;;2.97;;
8946;SDS011;4508;48.790;9.028;2022-09-06T02:33:21;3.03;;;2.63;;
8946;SDS011;4508;48.790;9.028;2022-09-06T02:35:52;3.50;;;3.03;;
8946;SDS011;4508;48.790;9.028;2022-09-06T02:38:20;4.75;;;3.03;;
8946;SDS011;4508;48.790;9.028;2022-09-06T02:40:48;5.53;;;3.70;;
8946;SDS011;4508;48.790;9.028;2022-09-06T02:43:16;8.27;;;4.15;;
8946;SDS011;4508;48.790;9.028;2022-09-06T02:45:43;7.85;;;4.10;;
8946;SDS011;4508;48.790;9.028;2022-09-06T02:48:11;4.75;;;3.70;;
8946;SDS011;4508;48.790;9.028;2022-09-06T02:50:38;6.03;;;3.85;;
8946;SDS011;4508;48.790;9.028;2022-09-06T02:53:05;5.80;;;3.75;;
8946;SDS011;4508;48.790;9.028;2022-09-06T02:55:34;6.28;;;3.70;;
8946;SDS011;4508;48.790;9.028;2022-09-06T02:58:02;5.85;;;3.70;;
8946;SDS011;4508;48.790;9.028;2022-09-06T03:00:29;5.85;;;3.40;;
8946;SDS011;4508;48.790;9.028;2022-09-06T03:02:56;4.23;;;3.27;;
8946;SDS011;4508;48.790;9.028;2022-09-06T03:05:25;3.70;;;3.15;;
8946;SDS011;4508;48.790;9.028;2022-09-06T03:07:53;5.28;;;3.30;;
8946;SDS011;4508;48.790;9.028;2022-09-06T03:10:21;5.17;;;3.63;;
8946;SDS011;4508;48.790;9.028;2022-09-06T03:12:49;4.83;;;3.57;;
8946;SDS011;4508;48.790;9.028;2022-09-06T03:15:16;5.18;;;3.38;;
8946;SDS011;4508;48.790;9.028;2022-09-06T03:17:43;4.23;;;3.00;;
8946;SDS011;4508;48.790;9.028;2022-09-06T03:20:10;4.30;;;3.03;;
8946;SDS011;4508;48.790;9.028;2022-09-06T03:22:39;3.50;;;3.20;;
8946;SDS011;4508;48.790;9.028;2022-09-06T03:25:07;4.07;;;3.10;;
8946;SDS011;4508;48.790;9.028;2022-09-06T03:27:35;3.42;;;2.90;;
8946;SDS011;4508;48.790;9.028;2022-09-06T03:30:02;4.22;;;3.10;;
8946;SDS011;4508;48.790;9.028;2022-09-06T03:32:30;3.50;;;2.85;;
8946;SDS011;4508;48.790;9.028;2022-09-06T03:34:57;3.67;;;3.20;;
8946;SDS011;4508;48.790;9.028;2022-09-06T03:37:24;4.43;;;3.00;;
8946;SDS011;4508;48.790;9.028;2022-09-06T03:39:52;3.45;;;3.05;;
8946;SDS011;4508;48.790;9.028;2022-09-06T03:42:19;3.60;;;3.17;;
8946;SDS011;4508;48.790;9.028;2022-09-06T03:44:46;3.70;;;2.97;;
8946;SDS011;4508;48.790;9.028;2022-09-06T03:47:13;3.93;;;3.50;;
8946;SDS011;4508;48.790;9.028;2022-09-06T03:49:40;3.88;;;2.85;;
8946;SDS011;4508;48.790;9.028;2022-09-06T03:52:07;3.97;;;3.10;;
8946;SDS011;4508;48.790;9.028;2022-09-06T03:54:34;3.42;;;2.90;;
8946;SDS011;4508;48.790;9.028;2022-09-06T03:57:03;4.23;;;3.20;;
8946;SDS011;4508;48.790;9.028;2022-09-06T03:59:31;4.73;;;3.00;;
8946;SDS011;4508;48.790;9.028;2022-09-06T04:01:57;5.10;;;3.10;;
8946;SDS011;4508;48.790;9.028;2022-09-06T04:04:24;3.80;;;3.50;;
8946;SDS011;4508;48.790;9.028;2022-09-06T04:06:51;4.40;;;4.00;;
8946;SDS011;4508;48.790;9.028;2022-09-06T04:09:18;4.82;;;3.40;;
8946;SDS011;4508;48.790;9.028;2022-09-06T04:11:45;3.80;;;3.28;;
8946;SDS011;4508;48.790;9.028;2022-09-06T04:14:14;3.58;;;3.28;;
8946;SDS011;4508;48.790;9.028;2022-09-06T04:16:41;3.50;;;3.20;;
8946;SDS011;4508;48.790;9.028;2022-09-06T04:19:07;3.53;;;3.23;;
8946;SDS011;4508;48.790;9.028;2022-09-06T04:21:34;4.32;;;3.40;;
8946;SDS011;4508;48.790;9.028;2022-09-06T04:24:01;3.47;;;3.17;;
8946;SDS011;4508;48.790;9.028;2022-09-06T04:26:28;4.80;;;3.20;;
8946;SDS011;4508;48.790;9.028;2022-09-06T04:28:55;4.35;;;3.58;;
8946;SDS011;4508;48.790;9.028;2022-09-06T04:31:24;4.18;;;3.55;;
8946;SDS011;4508;48.790;9.028;2022-09-06T04:33:51;3.78;;;3.42;;
8946;SDS011;4508;48.790;9.028;2022-09-06T04:36:17;4.13;;;3.35;;
8946;SDS011;4508;48.790;9.028;2022-09-06T04:38:44;4.33;;;3.47;;
8946;SDS011;4508;48.790;9.028;2022-09-06T04:41:12;3.80;;;3.40;;
8946;SDS011;4508;48.790;9.028;2022-09-06T04:43:41;3.67;;;3.37;;
8946;SDS011;4508;48.790;9.028;2022-09-06T04:46:10;3.70;;;3.22;;
8946;SDS011;4508;48.790;9.028;2022-09-06T04:48:43;3.58;;;3.28;;
8946;SDS011;4508;48.790;9.028;2022-09-06T04:51:10;3.75;;;3.20;;
8946;SDS011;4508;48.790;9.028;2022-09-06T04:53:37;4.27;;;3.20;;
8946;SDS011;4508;48.790;9.028;2022-09-06T04:56:04;4.20;;;2.75;;
8946;SDS011;4508;48.790;9.028;2022-09-06T04:58:31;3.75;;;3.20;;
8946;SDS011;4508;48.790;9.028;2022-09-06T05:00:58;3.30;;;3.00;;
8946;SDS011;4508;48.790;9.028;2022-09-06T05:03:25;4.75;;;3.05;;
8946;SDS011;4508;48.790;9.028;2022-09-06T05:06:01;3.63;;;3.20;;
8946;SDS011;4508;48.790;9.028;2022-09-06T05:08:29;4.65;;;3.60;;
8946;SDS011;4508;48.790;9.028;2022-09-06T05:10:56;3.70;;;3.30;;
8946;SDS011;4508;48.790;9.028;2022-09-06T05:13:23;3.72;;;3.38;;
8946;SDS011;4508;48.790;9.028;2022-09-06T05:15:50;6.03;;;4.13;;
8946;SDS011;4508;48.790;9.028;2022-09-06T05:18:17;4.90;;;3.78;;
8946;SDS011;4508;48.790;9.028;2022-09-06T05:20:49;5.22;;;4.00;;
8946;SDS011;4508;48.790;9.028;2022-09-06T05:23:18;4.77;;;3.70;;
8946;SDS011;4508;48.790;9.028;2022-09-06T05:25:46;4.30;;;3.90;;
8946;SDS011;4508;48.790;9.028;2022-09-06T05:28:13;4.40;;;3.60;;
8946;SDS011;4508;48.790;9.028;2022-09-06T05:30:40;4.53;;;3.97;;
8946;SDS011;4508;48.790;9.028;2022-09-06T05:33:08;4.37;;;3.97;;
8946;SDS011;4508;48.790;9.028;2022-09-06T05:35:35;4.60;;;4.20;;
8946;SDS011;4508;48.790;9.028;2022-09-06T05:38:02;4.80;;;4.03;;
8946;SDS011;4508;48.790;9.028;2022-09-06T05:40:30;5.45;;;4.20;;
8946;SDS011;4508;48.790;9.028;2022-09-06T05:42:57;6.60;;;4.28;;
8946;SDS011;4508;48.790;9.028;2022-09-06T05:45:24;5.82;;;3.90;;
8946;SDS011;4508;48.790;9.028;2022-09-06T05:47:51;4.60;;;3.53;;
8946;SDS011;4508;48.790;9.028;2022-09-06T05:50:19;5.90;;;4.03;;
8946;SDS011;4508;48.790;9.028;2022-09-06T05:52:46;4.07;;;3.40;;
8946;SDS011;4508;48.790;9.028;2022-09-06T05:55:13;4.57;;;3.80;;
8946;SDS011;4508;48.790;9.028;2022-09-06T05:57:41;4.35;;;3.85;;
8946;SDS011;4508;48.790;9.028;2022-09-06T06:00:09;4.55;;;3.63;;
8946;SDS011;4508;48.790;9.028;2022-09-06T06:02:36;3.80;;;3.40;;
8946;SDS011;4508;48.790;9.028;2022-09-06T06:05:04;3.78;;;3.22;;
8946;SDS011;4508;48.790;9.028;2022-09-06T06:07:32;3.50;;;3.00;;
8946;SDS011;4508;48.790;9.028;2022-09-06T06:09:59;3.80;;;3.20;;
8946;SDS011;4508;48.790;9.028;2022-09-06T06:12:26;3.80;;;3.40;;
8946;SDS011;4508;48.790;9.028;2022-09-06T06:14:54;3.67;;;3.30;;
8946;SDS011;4508;48.790;9.028;2022-09-06T06:17:21;3.60;;;3.20;;
8946;SDS011;4508;48.790;9.028;2022-09-06T06:19:50;3.60;;;3.30;;
8946;SDS011;4508;48.790;9.028;2022-09-06T06:22:17;4.20;;;3.20;;
8946;SDS011;4508;48.790;9.028;2022-09-06T06:24:44;3.70;;;3.30;;
8946;SDS011;4508;48.790;9.028;2022-09-06T06:27:11;3.65;;;3.25;;
8946;SDS011;4508;48.790;9.028;2022-09-06T06:29:38;3.88;;;3.30;;
8946;SDS011;4508;48.790;9.028;2022-09-06T06:32:07;4.97;;;3.20;;
8946;SDS011;4508;48.790;9.028;2022-09-06T06:34:34;3.63;;;3.25;;
8946;SDS011;4508;48.790;9.028;2022-09-06T06:37:00;3.40;;;3.10;;
8946;SDS011;4508;48.790;9.028;2022-09-06T06:39:27;3.42;;;3.13;;
8946;SDS011;4508;48.790;9.028;2022-09-06T06:41:54;3.40;;;3.10;;
8946;SDS011;4508;48.790;9.028;2022-09-06T06:44:21;3.95;;;3.17;;
8946;SDS011;4508;48.790;9.028;2022-09-06T06:46:48;3.20;;;2.90;;
8946;SDS011;4508;48.790;9.028;2022-09-06T06:49:17;3.40;;;3.10;;
8946;SDS011;4508;48.790;9.028;2022-09-06T06:51:44;4.00;;;3.00;;
8946;SDS011;4508;48.790;9.028;2022-09-06T06:54:11;4.53;;;2.92;;
8946;SDS011;4508;48.790;9.028;2022-09-06T06:56:38;3.80;;;2.90;;
8946;SDS011;4508;48.790;9.028;2022-09-06T06:59:06;4.97;;;2.93;;
8946;SDS011;4508;48.790;9.028;2022-09-06T07:01:34;3.67;;;2.70;;
8946;SDS011;4508;48.790;9.028;2022-09-06T07:04:02;3.83;;;3.00;;
8946;SDS011;4508;48.790;9.028;2022-09-06T07:06:39;4.05;;;2.85;;
8946;SDS011;4508;48.790;9.028;2022-09-06T07:09:11;3.60;;;2.90;;
8946;SDS011;4508;48.790;9.028;2022-09-06T07:11:39;3.78;;;2.80;;
8946;SDS011;4508;48.790;9.028;2022-09-06T07:14:06;3.20;;;2.80;;
8946;SDS011;4508;48.790;9.028;2022-09-06T07:16:33;3.10;;;2.80;;
8946;SDS011;4508;48.790;9.028;2022-09-06T07:19:00;3.47;;;2.70;;
8946;SDS011;4508;48.790;9.028;2022-09-06T07:21:26;5.15;;;2.78;;
8946;SDS011;4508;48.790;9.028;2022-09-06T07:23:55;3.65;;;2.40;;
8946;SDS011;4508;48.790;9.028;2022-09-06T07:26:22;3.73;;;2.50;;
8946;SDS011;4508;48.790;9.028;2022-09-06T07:28:51;3.00;;;2.40;;
8946;SDS011;4508;48.790;9.028;2022-09-06T07:31:18;4.13;;;2.50;;
8946;SDS011;4508;48.790;9.028;2022-09-06T07:33:45;2.80;;;2.60;;
8946;SDS011;4508;48.790;9.028;2022-09-06T07:36:12;3.13;;;2.50;;
8946;SDS011;4508;48.790;9.028;2022-09-06T07:38:39;2.90;;;2.50;;
8946;SDS011;4508;48.790;9.028;2022-09-06T07:41:08;3.22;;;2.30;;
8946;SDS011;4508;48.790;9.028;2022-09-06T07:43:35;3.15;;;2.40;;
8946;SDS011;4508;48.790;9.028;2022-09-06T07:46:04;2.95;;;2.30;;
8946;SDS011;4508;48.790;9.028;2022-09-06T07:48:32;2.63;;;2.30;;
8946;SDS011;4508;48.790;9.028;2022-09-06T07:51:04;2.85;;;2.30;;
8946;SDS011;4508;48.790;9.028;2022-09-06T07:53:31;2.53;;;2.20;;
8946;SDS011;4508;48.790;9.028;2022-09-06T07:55:59;3.67;;;2.30;;
8946;SDS011;4508;48.790;9.028;2022-09-06T07:58:28;3.08;;;2.30;;
8946;SDS011;4508;48.790;9.028;2022-09-06T08:03:45;3.20;;;2.20;;
8946;SDS011;4508;48.790;9.028;2022-09-06T08:06:12;4.83;;;2.20;;
8946;SDS011;4508;48.790;9.028;2022-09-06T08:08:39;3.88;;;2.40;;
8946;SDS011;4508;48.790;9.028;2022-09-06T08:11:07;3.22;;;2.17;;
8946;SDS011;4508;48.790;9.028;2022-09-06T08:13:35;2.55;;;2.10;;
8946;SDS011;4508;48.790;9.028;2022-09-06T08:16:03;3.85;;;2.10;;
8946;SDS011;4508;48.790;9.028;2022-09-06T08:18:32;2.67;;;2.10;;
8946;SDS011;4508;48.790;9.028;2022-09-06T08:21:06;4.65;;;2.10;;
8946;SDS011;4508;48.790;9.028;2022-09-06T08:23:35;3.00;;;2.10;;
8946;SDS011;4508;48.790;9.028;2022-09-06T08:26:02;3.15;;;2.10;;
8946;SDS011;4508;48.790;9.028;2022-09-06T08:28:29;4.22;;;2.20;;
8946;SDS011;4508;48.790;9.028;2022-09-06T08:31:05;4.32;;;2.28;;
8946;SDS011;4508;48.790;9.028;2022-09-06T08:33:33;3.33;;;2.10;;
8946;SDS011;4508;48.790;9.028;2022-09-06T08:36:00;4.73;;;2.00;;
8946;SDS011;4508;48.790;9.028;2022-09-06T08:38:27;4.63;;;2.15;;
8946;SDS011;4508;48.790;9.028;2022-09-06T08:41:04;4.70;;;2.03;;
8946;SDS011;4508;48.790;9.028;2022-09-06T08:43:33;4.57;;;2.20;;
8946;SDS011;4508;48.790;9.028;2022-09-06T08:45:59;2.75;;;1.90;;
8946;SDS011;4508;48.790;9.028;2022-09-06T08:48:28;4.35;;;2.38;;
8946;SDS011;4508;48.790;9.028;2022-09-06T08:51:01;5.03;;;2.00;;
8946;SDS011;4508;48.790;9.028;2022-09-06T08:53:48;6.35;;;2.15;;
8946;SDS011;4508;48.790;9.028;2022-09-06T08:56:15;5.88;;;2.03;;
8946;SDS011;4508;48.790;9.028;2022-09-06T08:58:53;3.55;;;2.10;;
8946;SDS011;4508;48.790;9.028;2022-09-06T09:01:29;4.95;;;2.30;;
8946;SDS011;4508;48.790;9.028;2022-09-06T09:04:04;5.35;;;2.00;;
8946;SDS011;4508;48.790;9.028;2022-09-06T09:06:37;4.82;;;2.17;;
8946;SDS011;4508;48.790;9.028;2022-09-06T09:09:05;5.60;;;2.28;;
8946;SDS011;4508;48.790;9.028;2022-09-06T09:11:33;6.25;;;2.30;;
8946;SDS011;4508;48.790;9.028;2022-09-06T09:14:03;4.95;;;2.10;;
8946;SDS011;4508;48.790;9.028;2022-09-06T09:16:33;6.07;;;2.47;;
8946;SDS011;4508;48.790;9.028;2022-09-06T09:19:00;3.83;;;2.10;;
8946;SDS011;4508;48.790;9.028;2022-09-06T09:21:31;5.63;;;2.10;;
8946;SDS011;4508;48.790;9.028;2022-09-06T09:24:02;5.57;;;2.47;;
8946;SDS011;4508;48.790;9.028;2022-09-06T09:26:31;5.05;;;2.08;;
8946;SDS011;4508;48.790;9.028;2022-09-06T09:29:05;4.88;;;2.25;;
8946;SDS011;4508;48.790;9.028;2022-09-06T09:31:34;5.53;;;2.30;;
8946;SDS011;4508;48.790;9.028;2022-09-06T09:34:02;4.68;;;2.05;;
8946;SDS011;4508;48.790;9.028;2022-09-06T09:36:31;3.65;;;2.00;;
8946;SDS011;4508;48.790;9.028;2022-09-06T09:38:58;4.38;;;2.22;;
8946;SDS011;4508;48.790;9.028;2022-09-06T09:41:26;4.60;;;2.00;;
8946;SDS011;4508;48.790;9.028;2022-09-06T09:43:57;5.82;;;2.50;;
8946;SDS011;4508;48.790;9.028;2022-09-06T09:46:27;4.65;;;2.17;;
8946;SDS011;4508;48.790;9.028;2022-09-06T09:49:01;5.45;;;2.08;;
8946;SDS011;4508;48.790;9.028;2022-09-06T09:51:31;4.55;;;2.10;;
8946;SDS011;4508;48.790;9.028;2022-09-06T09:54:00;3.05;;;1.98;;
8946;SDS011;4508;48.790;9.028;2022-09-06T09:56:32;4.10;;;2.20;;
8946;SDS011;4508;48.790;9.028;2022-09-06T09:59:04;9.38;;;2.40;;
8946;SDS011;4508;48.790;9.028;2022-09-06T10:01:40;6.32;;;2.30;;
8946;SDS011;4508;48.790;9.028;2022-09-06T10:44:55;6.25;;;2.53;;
8946;SDS011;4508;48.790;9.028;2022-09-06T10:47:31;4.55;;;2.30;;
8946;SDS011;4508;48.790;9.028;2022-09-06T10:50:15;6.53;;;2.60;;
8946;SDS011;4508;48.790;9.028;2022-09-06T10:52:44;5.38;;;2.47;;
8946;SDS011;4508;48.790;9.028;2022-09-06T10:55:16;5.35;;;2.53;;
8946;SDS011;4508;48.790;9.028;2022-09-06T10:57:45;5.22;;;2.50;;
8946;SDS011;4508;48.790;9.028;2022-09-06T11:00:14;4.43;;;2.30;;
8946;SDS011;4508;48.790;9.028;2022-09-06T11:02:44;5.63;;;2.55;;
8946;SDS011;4508;48.790;9.028;2022-09-06T11:05:16;5.68;;;2.60;;
8946;SDS011;4508;48.790;9.028;2022-09-06T11:07:50;7.72;;;2.38;;
8946;SDS011;4508;48.790;9.028;2022-09-06T11:10:22;4.22;;;2.40;;
8946;SDS011;4508;48.790;9.028;2022-09-06T11:12:53;5.70;;;2.50;;
8946;SDS011;4508;48.790;9.028;2022-09-06T11:15:24;6.03;;;2.70;;
8946;SDS011;4508;48.790;9.028;2022-09-06T11:17:54;6.28;;;2.25;;
8946;SDS011;4508;48.790;9.028;2022-09-06T11:20:25;5.82;;;2.60;;
8946;SDS011;4508;48.790;9.028;2022-09-06T11:23:03;6.63;;;2.70;;
8946;SDS011;4508;48.790;9.028;2022-09-06T11:26:03;5.43;;;2.50;;
8946;SDS011;4508;48.790;9.028;2022-09-06T11:28:54;6.10;;;2.53;;
8946;SDS011;4508;48.790;9.028;2022-09-06T11:31:24;6.33;;;2.63;;
8946;SDS011;4508;48.790;9.028;2022-09-06T11:34:03;5.80;;;2.50;;
8946;SDS011;4508;48.790;9.028;2022-09-06T11:36:34;3.53;;;2.08;;
8946;SDS011;4508;48.790;9.028;2022-09-06T11:39:05;4.03;;;2.42;;
8946;SDS011;4508;48.790;9.028;2022-09-06T11:41:34;7.32;;;2.53;;
8946;SDS011;4508;48.790;9.028;2022-09-06T11:44:04;6.65;;;2.42;;
8946;SDS011;4508;48.790;9.028;2022-09-06T11:55:30;5.38;;;2.30;;
8946;SDS011;4508;48.790;9.028;2022-09-06T11:58:02;6.97;;;2.28;;
8946;SDS011;4508;48.790;9.028;2022-09-06T12:00:34;5.63;;;2.30;;
8946;SDS011;4508;48.790;9.028;2022-09-06T12:03:01;6.03;;;2.17;;
8946;SDS011;4508;48.790;9.028;2022-09-06T12:05:32;4.78;;;2.30;;
8946;SDS011;4508;48.790;9.028;2022-09-06T12:11:04;5.63;;;2.30;;
8946;SDS011;4508;48.790;9.028;2022-09-06T12:13:52;4.43;;;2.30;;
8946;SDS011;4508;48.790;9.028;2022-09-06T12:16:21;4.43;;;2.42;;
8946;SDS011;4508;48.790;9.028;2022-09-06T12:18:52;4.88;;;2.60;;
8946;SDS011;4508;48.790;9.028;2022-09-06T12:21:42;5.97;;;2.60;;
8946;SDS011;4508;48.790;9.028;2022-09-06T12:27:17;7.07;;;2.97;;
8946;SDS011;4508;48.790;9.028;2022-09-06T12:29:50;6.05;;;2.65;;
8946;SDS011;4508;48.790;9.028;2022-09-06T12:32:24;4.28;;;2.00;;
8946;SDS011;4508;48.790;9.028;2022-09-06T12:34:54;5.13;;;2.10;;
8946;SDS011;4508;48.790;9.028;2022-09-06T12:37:29;5.28;;;2.10;;
8946;SDS011;4508;48.790;9.028;2022-09-06T12:39:58;3.30;;;1.90;;
8946;SDS011;4508;48.790;9.028;2022-09-06T12:42:27;3.28;;;1.90;;
8946;SDS011;4508;48.790;9.028;2022-09-06T12:44:55;5.15;;;2.00;;
8946;SDS011;4508;48.790;9.028;2022-09-06T12:47:23;4.40;;;1.92;;
8946;SDS011;4508;48.790;9.028;2022-09-06T12:50:09;6.10;;;2.22;;
8946;SDS011;4508;48.790;9.028;2022-09-06T12:52:44;4.03;;;1.98;;
8946;SDS011;4508;48.790;9.028;2022-09-06T12:55:18;3.40;;;2.00;;
8946;SDS011;4508;48.790;9.028;2022-09-06T12:57:50;3.97;;;2.07;;
8946;SDS011;4508;48.790;9.028;2022-09-06T13:00:18;4.33;;;2.20;;
8946;SDS011;4508;48.790;9.028;2022-09-06T13:02:50;5.50;;;2.30;;
8946;SDS011;4508;48.790;9.028;2022-09-06T13:05:20;4.85;;;2.25;;
8946;SDS011;4508;48.790;9.028;2022-09-06T13:07:48;4.70;;;2.30;;
8946;SDS011;4508;48.790;9.028;2022-09-06T13:10:19;4.93;;;2.20;;
8946;SDS011;4508;48.790;9.028;2022-09-06T13:12:50;5.32;;;2.20;;
8946;SDS011;4508;48.790;9.028;2022-09-06T13:15:20;5.07;;;2.33;;
8946;SDS011;4508;48.790;9.028;2022-09-06T13:17:50;5.32;;;2.38;;
8946;SDS011;4508;48.790;9.028;2022-09-06T13:20:21;5.72;;;2.05;;
8946;SDS011;4508;48.790;9.028;2022-09-06T13:22:52;5.27;;;2.30;;
8946;SDS011;4508;48.790;9.028;2022-09-06T13:25:30;4.40;;;1.97;;
8946;SDS011;4508;48.790;9.028;2022-09-06T13:27:58;4.05;;;2.20;;
8946;SDS011;4508;48.790;9.028;2022-09-06T13:30:30;4.65;;;2.30;;
8946;SDS011;4508;48.790;9.028;2022-09-06T13:32:59;4.15;;;2.35;;
8946;SDS011;4508;48.790;9.028;2022-09-06T13:35:28;5.30;;;2.33;;
8946;SDS011;4508;48.790;9.028;2022-09-06T13:40:46;6.07;;;2.65;;
8946;SDS011;4508;48.790;9.028;2022-09-06T13:43:16;4.93;;;2.42;;
8946;SDS011;4508;48.790;9.028;2022-09-06T13:45:47;4.00;;;2.47;;
8946;SDS011;4508;48.790;9.028;2022-09-06T13:48:14;5.88;;;2.50;;
8946;SDS011;4508;48.790;9.028;2022-09-06T13:50:41;4.65;;;2.67;;
8946;SDS011;4508;48.790;9.028;2022-09-06T13:53:08;6.45;;;2.63;;
8946;SDS011;4508;48.790;9.028;2022-09-06T13:55:35;4.53;;;2.50;;
8946;SDS011;4508;48.790;9.028;2022-09-06T13:58:02;4.60;;;2.50;;
8946;SDS011;4508;48.790;9.028;2022-09-06T14:00:30;4.32;;;2.20;;
8946;SDS011;4508;48.790;9.028;2022-09-06T14:02:57;4.68;;;2.50;;
8946;SDS011;4508;48.790;9.028;2022-09-06T14:05:24;4.28;;;2.47;;
8946;SDS011;4508;48.790;9.028;2022-09-06T14:07:51;5.70;;;3.15;;
8946;SDS011;4508;48.790;9.028;2022-09-06T14:10:18;5.55;;;2.75;;
8946;SDS011;4508;48.790;9.028;2022-09-06T14:12:47;4.45;;;2.40;;
8946;SDS011;4508;48.790;9.028;2022-09-06T14:15:15;4.63;;;2.22;;
8946;SDS011;4508;48.790;9.028;2022-09-06T14:17:43;4.03;;;2.38;;
8946;SDS011;4508;48.790;9.028;2022-09-06T14:20:11;4.40;;;2.30;;
8946;SDS011;4508;48.790;9.028;2022-09-06T14:22:38;5.93;;;2.42;;
8946;SDS011;4508;48.790;9.028;2022-09-06T14:25:05;5.30;;;2.90;;
8946;SDS011;4508;48.790;9.028;2022-09-06T14:27:33;6.07;;;2.70;;
8946;SDS011;4508;48.790;9.028;2022-09-06T14:30:00;5.03;;;2.90;;
8946;SDS011;4508;48.790;9.028;2022-09-06T14:32:27;5.82;;;2.97;;
8946;SDS011;4508;48.790;9.028;2022-09-06T14:34:55;6.15;;;2.92;;
8946;SDS011;4508;48.790;9.028;2022-09-06T14:37:22;4.60;;;2.95;;
8946;SDS011;4508;48.790;9.028;2022-09-06T14:39:49;7.03;;;3.23;;
8946;SDS011;4508;48.790;9.028;2022-09-06T14:42:16;4.60;;;2.70;;
8946;SDS011;4508;48.790;9.028;2022-09-06T14:44:43;4.65;;;2.70;;
8946;SDS011;4508;48.790;9.028;2022-09-06T14:47:10;4.45;;;2.53;;
8946;SDS011;4508;48.790;9.028;2022-09-06T14:49:37;5.07;;;2.53;;
8946;SDS011;4508;48.790;9.028;2022-09-06T14:52:06;3.50;;;2.47;;
8946;SDS011;4508;48.790;9.028;2022-09-06T14:54:33;5.50;;;2.78;;
8946;SDS011;4508;48.790;9.028;2022-09-06T14:57:00;5.40;;;2.63;;
8946;SDS011;4508;48.790;9.028;2022-09-06T14:59:27;4.68;;;2.30;;
8946;SDS011;4508;48.790;9.028;2022-09-06T15:01:53;4.90;;;2.55;;
8946;SDS011;4508;48.790;9.028;2022-09-06T15:04:21;4.65;;;2.63;;
8946;SDS011;4508;48.790;9.028;2022-09-06T15:06:50;4.50;;;2.53;;
8946;SDS011;4508;48.790;9.028;2022-09-06T15:09:19;5.53;;;2.50;;
8946;SDS011;4508;48.790;9.028;2022-09-06T15:11:46;4.60;;;2.40;;
8946;SDS011;4508;48.790;9.028;2022-09-06T15:14:15;4.15;;;2.30;;
8946;SDS011;4508;48.790;9.028;2022-09-06T15:16:43;3.22;;;2.17;;
8946;SDS011;4508;48.790;9.028;2022-09-06T15:19:11;3.60;;;2.40;;
8946;SDS011;4508;48.790;9.028;2022-09-06T15:21:38;4.88;;;2.40;;
8946;SDS011;4508;48.790;9.028;2022-09-06T15:24:05;3.75;;;2.30;;
8946;SDS011;4508;48.790;9.028;2022-09-06T15:26:33;5.05;;;2.10;;
8946;SDS011;4508;48.790;9.028;2022-09-06T15:29:00;4.22;;;2.00;;
8946;SDS011;4508;48.790;9.028;2022-09-06T15:31:27;3.65;;;2.20;;
8946;SDS011;4508;48.790;9.028;2022-09-06T15:33:55;3.30;;;2.00;;
8946;SDS011;4508;48.790;9.028;2022-09-06T15:36:23;4.78;;;2.42;;
8946;SDS011;4508;48.790;9.028;2022-09-06T15:38:50;4.22;;;1.98;;
8946;SDS011;4508;48.790;9.028;2022-09-06T15:41:19;3.93;;;1.80;;
8946;SDS011;4508;48.790;9.028;2022-09-06T15:43:49;3.50;;;1.90;;
8946;SDS011;4508;48.790;9.028;2022-09-06T15:46:19;3.70;;;1.90;;
8946;SDS011;4508;48.790;9.028;2022-09-06T15:49:05;4.43;;;2.10;;
8946;SDS011;4508;48.790;9.028;2022-09-06T15:51:33;4.07;;;2.10;;
8946;SDS011;4508;48.790;9.028;2022-09-06T15:54:03;2.67;;;1.90;;
8946;SDS011;4508;48.790;9.028;2022-09-06T15:56:30;3.63;;;2.00;;
8946;SDS011;4508;48.790;9.028;2022-09-06T15:58:58;4.45;;;2.05;;
8946;SDS011;4508;48.790;9.028;2022-09-06T16:01:25;2.92;;;1.67;;
8946;SDS011;4508;48.790;9.028;2022-09-06T16:03:53;2.65;;;1.48;;
8946;SDS011;4508;48.790;9.028;2022-09-06T16:06:23;2.80;;;1.50;;
8946;SDS011;4508;48.790;9.028;2022-09-06T16:08:51;2.90;;;1.90;;
8946;SDS011;4508;48.790;9.028;2022-09-06T16:11:22;3.40;;;1.60;;
8946;SDS011;4508;48.790;9.028;2022-09-06T16:13:50;2.78;;;1.63;;
8946;SDS011;4508;48.790;9.028;2022-09-06T16:16:18;3.35;;;1.40;;
8946;SDS011;4508;48.790;9.028;2022-09-06T16:18:46;3.10;;;1.55;;
8946;SDS011;4508;48.790;9.028;2022-09-06T16:21:14;2.47;;;1.50;;
8946;SDS011;4508;48.790;9.028;2022-09-06T16:23:46;2.42;;;1.60;;
8946;SDS011;4508;48.790;9.028;2022-09-06T16:26:13;2.78;;;1.45;;
8946;SDS011;4508;48.790;9.028;2022-09-06T16:28:40;2.25;;;1.73;;
8946;SDS011;4508;48.790;9.028;2022-09-06T16:31:07;2.83;;;1.73;;
8946;SDS011;4508;48.790;9.028;2022-09-06T16:33:36;2.40;;;1.65;;
8946;SDS011;4508;48.790;9.028;2022-09-06T16:36:05;4.38;;;1.63;;